createdAt,value
2018-04-07T00:01:06.836Z,12.49
2018-04-07T00:02:06.812Z,12.61
2018-04-07T00:04:00.162Z,12.70
2018-04-07T00:05:00.143Z,12.68
2018-04-07T00:06:53.008Z,12.67
2018-04-07T00:07:52.980Z,12.64
2018-04-07T00:09:45.847Z,12.67
2018-04-07T00:10:45.817Z,12.46
2018-04-07T00:12:38.685Z,12.55
2018-04-07T00:13:38.655Z,12.47
2018-04-07T00:15:31.508Z,12.61
2018-04-07T00:16:31.492Z,12.61
2018-04-07T00:18:24.856Z,12.60
2018-04-07T00:19:24.824Z,12.49
2018-04-07T00:21:18.178Z,12.64
2018-04-07T00:22:18.159Z,12.65
2018-04-07T00:24:11.519Z,12.57
2018-04-07T00:25:11.488Z,12.64
2018-04-07T00:27:04.836Z,12.50
2018-04-07T00:28:04.818Z,12.46
2018-04-07T00:29:57.685Z,12.36
2018-04-07T00:30:57.656Z,12.39
2018-04-07T00:32:51.008Z,12.35
2018-04-07T00:33:50.988Z,12.32
2018-04-07T00:35:44.354Z,12.53
2018-04-07T00:36:44.316Z,12.45
2018-04-07T00:38:37.671Z,12.42
2018-04-07T00:39:37.668Z,12.15
2018-04-07T00:41:31.009Z,12.36
2018-04-07T00:42:30.980Z,12.20
2018-04-07T00:44:23.835Z,12.49
2018-04-07T00:45:23.818Z,12.49
2018-04-07T00:47:17.179Z,12.42
2018-04-07T00:48:17.149Z,12.37
2018-04-07T00:50:10.008Z,12.46
2018-04-07T00:51:09.985Z,12.32
2018-04-07T00:53:02.856Z,12.32
2018-04-07T00:54:02.821Z,12.49
2018-04-07T00:55:55.693Z,12.47
2018-04-07T00:56:55.683Z,12.28
2018-04-07T00:58:49.030Z,12.42
2018-04-07T00:59:48.998Z,12.35
2018-04-07T01:01:41.857Z,12.27
2018-04-07T01:02:41.839Z,12.29
2018-04-07T01:04:34.705Z,12.25
2018-04-07T01:05:34.673Z,12.13
2018-04-07T01:07:28.025Z,12.40
2018-04-07T01:08:28.005Z,12.35
2018-04-07T01:10:20.883Z,12.28
2018-04-07T01:11:20.841Z,12.39
2018-04-07T01:13:14.191Z,12.21
2018-04-07T01:14:14.173Z,12.25
2018-04-07T01:16:07.547Z,12.27
2018-04-07T01:17:07.514Z,12.27
2018-04-07T01:19:00.367Z,12.13
2018-04-07T01:20:00.346Z,12.07
2018-04-07T01:21:53.710Z,12.04
2018-04-07T01:22:53.679Z,11.95
2018-04-07T01:24:46.530Z,11.99
2018-04-07T01:25:46.509Z,11.95
2018-04-07T01:27:39.407Z,12.13
2018-04-07T01:28:39.348Z,12.07
2018-04-07T01:30:32.216Z,11.99
2018-04-07T01:31:32.176Z,11.99
2018-04-07T01:33:25.548Z,12.03
2018-04-07T01:34:25.515Z,12.22
2018-04-07T01:36:18.367Z,12.07
2018-04-07T01:37:18.347Z,12.13
2018-04-07T01:39:11.721Z,12.09
2018-04-07T01:40:11.686Z,12.02
2018-04-07T01:42:04.629Z,11.84
2018-04-07T01:43:04.532Z,11.99
2018-04-07T01:44:57.918Z,11.80
2018-04-07T01:45:57.868Z,11.80
2018-04-07T01:47:50.722Z,12.12
2018-04-07T01:48:50.705Z,12.21
2018-04-07T01:50:43.573Z,12.07
2018-04-07T01:51:43.544Z,12.18
2018-04-07T01:53:36.889Z,12.17
2018-04-07T01:54:36.872Z,12.20
2018-04-07T01:56:29.739Z,11.99
2018-04-07T01:57:29.706Z,11.83
2018-04-07T01:59:22.561Z,12.00
2018-04-07T02:00:22.563Z,12.13
2018-04-07T02:02:15.905Z,12.04
2018-04-07T02:03:15.875Z,12.09
2018-04-07T02:05:09.222Z,11.91
2018-04-07T02:06:09.198Z,11.91
2018-04-07T02:08:02.642Z,11.87
2018-04-07T02:09:02.530Z,11.70
2018-04-07T02:10:55.391Z,11.80
2018-04-07T02:11:55.371Z,11.75
2018-04-07T02:13:48.730Z,11.69
2018-04-07T02:14:48.697Z,11.59
2018-04-07T02:16:41.548Z,11.68
2018-04-07T02:17:41.533Z,11.73
2018-04-07T02:19:34.394Z,11.88
2018-04-07T02:20:34.363Z,11.84
2018-04-07T02:22:27.715Z,11.83
2018-04-07T02:23:27.698Z,11.97
2018-04-07T02:25:21.056Z,12.07
2018-04-07T02:26:21.022Z,11.99
2018-04-07T02:28:14.368Z,11.73
2018-04-07T02:29:14.348Z,11.80
2018-04-07T02:31:07.715Z,11.80
2018-04-07T02:32:07.681Z,11.54
2018-04-07T02:34:00.538Z,11.47
2018-04-07T02:35:00.518Z,11.54
2018-04-07T02:36:53.879Z,11.44
2018-04-07T02:37:53.844Z,11.44
2018-04-07T02:39:47.207Z,11.26
2018-04-07T02:40:47.187Z,11.08
2018-04-07T02:42:40.562Z,11.00
2018-04-07T02:43:40.524Z,10.86
2018-04-07T02:45:33.393Z,10.92
2018-04-07T02:46:33.369Z,10.79
2018-04-07T02:48:26.734Z,11.05
2018-04-07T02:49:26.701Z,11.14
2018-04-07T02:51:20.053Z,11.23
2018-04-07T02:52:20.033Z,11.08
2018-04-07T02:54:13.393Z,11.00
2018-04-07T02:55:13.361Z,10.90
2018-04-07T02:57:06.221Z,10.89
2018-04-07T02:58:06.199Z,10.86
2018-04-07T02:59:59.066Z,10.92
2018-04-07T03:00:59.039Z,10.87
2018-04-07T03:02:52.383Z,10.93
2018-04-07T03:03:52.361Z,10.93
2018-04-07T03:05:45.229Z,10.79
2018-04-07T03:06:45.194Z,10.60
2018-04-07T03:08:38.044Z,10.92
2018-04-07T03:09:38.024Z,10.84
2018-04-07T03:11:30.888Z,10.94
2018-04-07T03:12:30.855Z,10.89
2018-04-07T03:14:24.217Z,10.63
2018-04-07T03:15:24.187Z,10.68
2018-04-07T03:17:17.051Z,10.86
2018-04-07T03:18:17.020Z,10.75
2018-04-07T03:20:09.869Z,10.79
2018-04-07T03:21:09.852Z,10.89
2018-04-07T03:23:02.716Z,10.87
2018-04-07T03:24:02.686Z,10.89
2018-04-07T03:25:55.533Z,11.00
2018-04-07T03:26:55.514Z,11.07
2018-04-07T03:28:48.381Z,11.17
2018-04-07T03:29:48.349Z,10.99
2018-04-07T03:31:41.694Z,11.12
2018-04-07T03:32:41.674Z,10.93
2018-04-07T03:34:34.547Z,10.90
2018-04-07T03:35:34.515Z,10.93
2018-04-07T03:37:27.862Z,10.76
2018-04-07T03:38:27.842Z,10.74
2018-04-07T03:40:21.201Z,10.63
2018-04-07T03:41:21.168Z,10.69
2018-04-07T03:43:14.517Z,10.67
2018-04-07T03:44:14.493Z,10.69
2018-04-07T03:46:08.352Z,10.79
2018-04-07T03:47:08.319Z,10.75
2018-04-07T03:49:01.667Z,10.87
2018-04-07T03:50:01.643Z,10.82
2018-04-07T03:51:55.004Z,10.78
2018-04-07T03:52:54.969Z,10.79
2018-04-07T03:54:48.315Z,10.68
2018-04-07T03:55:48.295Z,10.71
2018-04-07T03:57:41.650Z,10.64
2018-04-07T03:58:41.619Z,10.60
2018-04-07T04:00:34.975Z,10.68
2018-04-07T04:01:34.962Z,10.68
2018-04-07T04:03:27.818Z,10.59
2018-04-07T04:04:27.785Z,10.49
2018-04-07T04:06:20.637Z,10.49
2018-04-07T04:07:20.615Z,10.35
2018-04-07T04:09:13.502Z,10.28
2018-04-07T04:10:13.475Z,10.19
2018-04-07T04:12:06.320Z,10.04
2018-04-07T04:13:06.302Z,10.20
2018-04-07T04:14:59.668Z,10.20
2018-04-07T04:15:59.636Z,10.22
2018-04-07T04:17:52.493Z,10.16
2018-04-07T04:18:52.467Z,10.07
2018-04-07T04:20:45.409Z,10.25
2018-04-07T04:21:45.300Z,10.33
2018-04-07T04:23:38.652Z,10.33
2018-04-07T04:24:38.630Z,10.34
2018-04-07T04:26:31.506Z,10.33
2018-04-07T04:27:31.474Z,10.23
2018-04-07T04:29:24.819Z,10.44
2018-04-07T04:30:24.800Z,10.69
2018-04-07T04:32:18.157Z,10.76
2018-04-07T04:33:18.127Z,10.86
2018-04-07T04:35:10.977Z,10.72
2018-04-07T04:36:10.957Z,10.76
2018-04-07T04:38:04.322Z,10.92
2018-04-07T04:39:04.293Z,10.86
2018-04-07T04:40:57.148Z,11.04
2018-04-07T04:41:57.125Z,11.00
2018-04-07T04:43:49.986Z,11.15
2018-04-07T04:44:49.957Z,11.19
2018-04-07T04:46:43.310Z,11.02
2018-04-07T04:47:43.292Z,10.92
2018-04-07T04:49:36.650Z,10.64
2018-04-07T04:50:36.615Z,10.35
2018-04-07T04:52:29.960Z,10.42
2018-04-07T04:53:29.940Z,10.33
2018-04-07T04:55:23.296Z,10.13
2018-04-07T04:56:23.263Z,10.25
2018-04-07T04:58:16.115Z,10.02
2018-04-07T04:59:16.094Z,9.92
2018-04-07T05:01:08.962Z,9.94
2018-04-07T05:02:08.924Z,9.76
2018-04-07T05:04:02.279Z,9.82
2018-04-07T05:05:02.255Z,9.74
2018-04-07T05:06:55.612Z,9.80
2018-04-07T05:07:55.580Z,10.13
2018-04-07T05:09:48.432Z,10.16
2018-04-07T05:10:48.409Z,10.19
2018-04-07T05:12:41.811Z,10.12
2018-04-07T05:13:41.737Z,9.98
2018-04-07T05:15:34.586Z,10.05
2018-04-07T05:16:34.563Z,10.02
2018-04-07T05:18:27.431Z,10.19
2018-04-07T05:19:27.398Z,10.02
2018-04-07T05:21:20.251Z,10.04
2018-04-07T05:22:20.231Z,10.02
2018-04-07T05:24:13.098Z,9.94
2018-04-07T05:25:13.063Z,10.07
2018-04-07T05:27:05.916Z,10.31
2018-04-07T05:28:05.893Z,10.13
2018-04-07T05:29:58.764Z,10.22
2018-04-07T05:30:58.732Z,10.20
2018-04-07T05:32:51.583Z,10.20
2018-04-07T05:33:51.559Z,10.19
2018-04-07T05:35:44.425Z,10.26
2018-04-07T05:36:44.390Z,10.26
2018-04-07T05:38:37.278Z,10.30
2018-04-07T05:39:37.217Z,10.35
2018-04-07T05:41:30.575Z,10.19
2018-04-07T05:42:30.542Z,10.28
2018-04-07T05:44:23.889Z,10.20
2018-04-07T05:45:23.865Z,10.30
2018-04-07T05:47:17.222Z,10.31
2018-04-07T05:48:17.187Z,10.33
2018-04-07T05:50:10.039Z,10.49
2018-04-07T05:51:10.018Z,10.49
2018-04-07T05:53:02.879Z,10.38
2018-04-07T05:54:02.845Z,10.35
2018-04-07T05:55:56.193Z,10.41
2018-04-07T05:56:56.169Z,10.51
2018-04-07T05:58:49.032Z,10.69
2018-04-07T05:59:49.000Z,10.44
2018-04-07T06:01:41.855Z,10.44
2018-04-07T06:02:41.834Z,10.35
2018-04-07T06:04:35.205Z,10.30
2018-04-07T06:05:35.168Z,10.26
2018-04-07T06:07:28.020Z,10.30
2018-04-07T06:08:27.999Z,10.35
2018-04-07T06:10:21.358Z,10.60
2018-04-07T06:11:21.322Z,10.51
2018-04-07T06:13:14.171Z,10.69
2018-04-07T06:14:14.156Z,10.67
2018-04-07T06:16:07.511Z,10.63
2018-04-07T06:17:07.476Z,10.72
2018-04-07T06:19:00.326Z,10.68
2018-04-07T06:20:00.305Z,10.81
2018-04-07T06:21:53.168Z,10.75
2018-04-07T06:22:53.144Z,10.81
2018-04-07T06:24:46.480Z,10.64
2018-04-07T06:25:46.456Z,10.72
2018-04-07T06:27:39.814Z,10.67
2018-04-07T06:28:39.782Z,10.71
2018-04-07T06:30:34.126Z,10.81
2018-04-07T06:31:34.103Z,10.87
2018-04-07T06:33:26.974Z,10.87
2018-04-07T06:34:26.940Z,10.99
2018-04-07T06:36:20.783Z,11.05
2018-04-07T06:37:20.762Z,10.92
2018-04-07T06:39:13.625Z,11.05
2018-04-07T06:40:13.590Z,11.23
2018-04-07T06:42:06.460Z,11.12
2018-04-07T06:43:06.421Z,10.96
2018-04-07T06:44:59.789Z,10.93
2018-04-07T06:45:59.758Z,10.97
2018-04-07T06:47:52.606Z,11.08
2018-04-07T06:48:52.587Z,11.08
2018-04-07T06:50:45.943Z,11.12
2018-04-07T06:51:45.909Z,11.08
2018-04-07T06:53:39.254Z,11.22
2018-04-07T06:54:39.230Z,11.17
2018-04-07T06:56:32.600Z,11.11
2018-04-07T06:57:32.566Z,11.12
2018-04-07T06:59:25.429Z,11.15
2018-04-07T07:00:25.396Z,11.12
2018-04-07T07:02:18.259Z,11.27
2018-04-07T07:03:18.224Z,11.29
2018-04-07T07:05:11.082Z,11.41
2018-04-07T07:06:11.058Z,11.45
2018-04-07T07:08:04.418Z,11.51
2018-04-07T07:09:04.388Z,11.48
2018-04-07T07:10:57.240Z,11.43
2018-04-07T07:11:57.277Z,11.50
2018-04-07T07:13:50.086Z,11.68
2018-04-07T07:14:50.056Z,11.70
2018-04-07T07:16:43.403Z,11.70
2018-04-07T07:17:43.451Z,11.94
2018-04-07T07:19:36.245Z,11.72
2018-04-07T07:20:36.213Z,11.69
2018-04-07T07:22:29.064Z,11.99
2018-04-07T07:23:29.044Z,11.97
2018-04-07T07:25:21.917Z,12.10
2018-04-07T07:26:21.876Z,12.07
2018-04-07T07:28:14.729Z,12.02
2018-04-07T07:29:14.710Z,12.00
2018-04-07T07:31:07.572Z,12.00
2018-04-07T07:32:07.541Z,11.97
2018-04-07T07:34:00.394Z,12.09
2018-04-07T07:35:00.373Z,12.15
2018-04-07T07:36:53.740Z,12.07
2018-04-07T07:37:53.698Z,12.12
2018-04-07T07:39:46.558Z,12.28
2018-04-07T07:40:46.533Z,12.25
2018-04-07T07:42:39.405Z,12.39
2018-04-07T07:43:39.361Z,12.43
2018-04-07T07:45:33.205Z,12.57
2018-04-07T07:46:33.185Z,12.60
2018-04-07T07:48:26.548Z,12.47
2018-04-07T07:49:26.514Z,12.61
2018-04-07T07:51:19.861Z,12.65
2018-04-07T07:52:19.841Z,12.65
2018-04-07T07:54:13.703Z,12.79
2018-04-07T07:55:13.673Z,12.85
2018-04-07T07:57:06.541Z,12.80
2018-04-07T07:58:06.506Z,12.97
2018-04-07T07:59:59.413Z,12.98
2018-04-07T08:00:59.350Z,12.94
2018-04-07T08:02:52.203Z,13.11
2018-04-07T08:03:52.186Z,13.18
2018-04-07T08:05:45.549Z,13.25
2018-04-07T08:06:45.517Z,13.03
2018-04-07T08:08:38.869Z,13.23
2018-04-07T08:09:38.847Z,13.16
2018-04-07T08:11:32.205Z,13.20
2018-04-07T08:12:32.178Z,13.25
2018-04-07T08:14:25.073Z,13.33
2018-04-07T08:15:25.011Z,13.12
2018-04-07T08:17:18.367Z,13.35
2018-04-07T08:18:18.334Z,13.47
2018-04-07T08:20:11.682Z,13.22
2018-04-07T08:21:11.662Z,13.39
2018-04-07T08:23:04.526Z,13.59
2018-04-07T08:24:04.496Z,13.68
2018-04-07T08:25:57.354Z,13.79
2018-04-07T08:26:57.327Z,13.79
2018-04-07T08:28:50.709Z,13.81
2018-04-07T08:29:50.660Z,13.77
2018-04-07T08:31:44.013Z,13.85
2018-04-07T08:32:44.056Z,13.87
2018-04-07T08:34:37.362Z,13.86
2018-04-07T08:35:37.346Z,13.87
2018-04-07T08:37:30.216Z,13.90
2018-04-07T08:38:30.294Z,13.96
2018-04-07T08:40:23.100Z,13.97
2018-04-07T08:41:23.069Z,13.96
2018-04-07T08:43:16.421Z,14.11
2018-04-07T08:44:16.395Z,14.11
2018-04-07T08:46:09.762Z,14.32
2018-04-07T08:47:09.917Z,14.32
2018-04-07T08:49:03.141Z,14.30
2018-04-07T08:50:03.231Z,14.40
2018-04-07T08:51:56.444Z,14.40
2018-04-07T08:52:56.412Z,14.41
2018-04-07T08:54:49.777Z,14.55
2018-04-07T08:55:49.753Z,14.45
2018-04-07T08:57:43.117Z,14.54
2018-04-07T08:58:43.129Z,14.54
2018-04-07T09:00:36.436Z,14.70
2018-04-07T09:01:36.412Z,14.66
2018-04-07T09:03:29.781Z,14.82
2018-04-07T09:04:29.749Z,14.85
2018-04-07T09:06:23.677Z,14.92
2018-04-07T09:07:23.602Z,15.06
2018-04-07T09:09:16.474Z,15.06
2018-04-07T09:10:16.438Z,14.99
2018-04-07T09:12:10.794Z,15.07
2018-04-07T09:13:10.780Z,15.10
2018-04-07T09:15:04.130Z,15.24
2018-04-07T09:16:04.102Z,15.22
2018-04-07T09:17:56.956Z,15.27
2018-04-07T09:18:56.941Z,15.35
2018-04-07T09:20:49.809Z,15.42
2018-04-07T09:21:49.775Z,15.44
2018-04-07T09:23:43.144Z,15.46
2018-04-07T09:24:43.126Z,15.42
2018-04-07T09:26:36.007Z,15.52
2018-04-07T09:27:36.204Z,15.67
2018-04-07T09:29:29.354Z,15.59
2018-04-07T09:30:29.316Z,15.65
2018-04-07T09:32:22.193Z,15.82
2018-04-07T09:33:22.181Z,15.76
2018-04-07T09:35:15.566Z,15.83
2018-04-07T09:36:15.541Z,15.83
2018-04-07T09:38:08.921Z,15.84
2018-04-07T09:39:08.889Z,15.88
2018-04-07T09:41:01.745Z,15.94
2018-04-07T09:42:01.770Z,16.02
2018-04-07T09:43:55.101Z,16.00
2018-04-07T09:44:55.066Z,16.17
2018-04-07T09:46:48.413Z,16.23
2018-04-07T09:47:48.397Z,16.28
2018-04-07T09:49:41.264Z,16.33
2018-04-07T09:50:41.235Z,16.29
2018-04-07T09:52:34.090Z,16.35
2018-04-07T09:53:34.073Z,16.43
2018-04-07T09:55:26.940Z,16.56
2018-04-07T09:56:26.913Z,16.61
2018-04-07T09:58:19.769Z,16.61
2018-04-07T09:59:19.749Z,16.72
2018-04-07T10:01:12.619Z,16.72
2018-04-07T10:02:12.591Z,16.78
2018-04-07T10:04:05.473Z,16.84
2018-04-07T10:05:05.433Z,16.86
2018-04-07T10:06:58.330Z,16.86
2018-04-07T10:07:58.284Z,16.86
2018-04-07T10:09:51.635Z,17.04
2018-04-07T10:10:51.625Z,17.06
2018-04-07T10:12:44.998Z,17.12
2018-04-07T10:13:44.952Z,17.11
2018-04-07T10:15:38.315Z,17.23
2018-04-07T10:16:38.285Z,17.33
2018-04-07T10:18:31.660Z,17.36
2018-04-07T10:19:31.619Z,17.45
2018-04-07T10:21:24.978Z,17.45
2018-04-07T10:22:24.960Z,17.59
2018-04-07T10:24:18.324Z,17.65
2018-04-07T10:25:18.293Z,17.64
2018-04-07T10:27:11.651Z,17.64
2018-04-07T10:28:11.637Z,17.79
2018-04-07T10:30:04.503Z,17.76
2018-04-07T10:31:04.471Z,17.89
2018-04-07T10:32:57.831Z,17.98
2018-04-07T10:33:57.809Z,17.87
2018-04-07T10:35:50.692Z,17.98
2018-04-07T10:36:50.676Z,17.95
2018-04-07T10:38:44.027Z,18.00
2018-04-07T10:39:44.001Z,18.05
2018-04-07T10:41:37.481Z,18.16
2018-04-07T10:42:37.481Z,18.19
2018-04-07T10:44:30.297Z,18.34
2018-04-07T10:45:30.282Z,18.35
2018-04-07T10:47:23.670Z,18.34
2018-04-07T10:48:23.638Z,18.43
2018-04-07T10:50:16.555Z,18.45
2018-04-07T10:51:16.546Z,18.49
2018-04-07T10:53:09.500Z,18.70
2018-04-07T10:54:09.495Z,18.73
2018-04-07T10:56:02.415Z,18.68
2018-04-07T10:57:02.362Z,18.70
2018-04-07T10:58:55.393Z,18.71
2018-04-07T10:59:55.393Z,18.66
2018-04-07T11:01:48.225Z,18.88
2018-04-07T11:02:48.227Z,18.98
2018-04-07T11:04:41.180Z,18.95
2018-04-07T11:05:41.119Z,19.12
2018-04-07T11:07:33.970Z,19.12
2018-04-07T11:08:33.956Z,19.16
2018-04-07T11:10:26.894Z,19.22
2018-04-07T11:11:26.815Z,19.27
2018-04-07T11:13:19.661Z,19.41
2018-04-07T11:14:19.646Z,19.58
2018-04-07T11:16:12.540Z,19.56
2018-04-07T11:17:12.494Z,19.58
2018-04-07T11:19:05.351Z,19.55
2018-04-07T11:20:05.336Z,19.55
2018-04-07T11:21:58.218Z,19.54
2018-04-07T11:22:58.187Z,19.67
2018-04-07T11:24:51.051Z,19.76
2018-04-07T11:25:51.037Z,19.73
2018-04-07T11:27:43.952Z,19.91
2018-04-07T11:28:43.891Z,19.99
2018-04-07T11:30:36.786Z,20.04
2018-04-07T11:31:36.859Z,20.09
2018-04-07T11:33:29.645Z,20.07
2018-04-07T11:34:29.615Z,20.14
2018-04-07T11:36:23.973Z,20.21
2018-04-07T11:37:23.958Z,20.31
2018-04-07T11:39:17.328Z,20.36
2018-04-07T11:40:17.297Z,20.51
2018-04-07T11:42:10.658Z,20.59
2018-04-07T11:43:10.644Z,20.70
2018-04-07T11:45:03.521Z,20.81
2018-04-07T11:46:03.486Z,20.96
2018-04-07T11:47:56.875Z,21.24
2018-04-07T11:48:56.862Z,21.52
2018-04-07T11:50:50.250Z,21.89
2018-04-07T11:51:50.225Z,22.14
2018-04-07T11:53:43.603Z,22.66
2018-04-07T11:54:43.588Z,22.83
2018-04-07T11:56:36.467Z,23.31
2018-04-07T11:57:36.444Z,23.65
2018-04-07T11:59:29.802Z,24.11
2018-04-07T12:00:29.794Z,24.35
2018-04-07T12:02:22.730Z,24.48
2018-04-07T12:03:22.645Z,24.50
2018-04-07T12:05:15.521Z,24.65
2018-04-07T12:06:15.520Z,24.58
2018-04-07T12:08:08.400Z,24.61
2018-04-07T12:09:08.375Z,24.61
2018-04-07T12:11:01.320Z,24.66
2018-04-07T12:12:01.233Z,24.60
2018-04-07T12:13:54.118Z,24.68
2018-04-07T12:14:54.092Z,24.66
2018-04-07T12:16:46.981Z,24.78
2018-04-07T12:17:46.971Z,24.84
2018-04-07T12:19:39.853Z,24.70
2018-04-07T12:20:39.826Z,24.78
2018-04-07T12:22:33.212Z,24.76
2018-04-07T12:23:33.192Z,24.84
2018-04-07T12:25:26.608Z,24.86
2018-04-07T12:26:26.573Z,24.80
2018-04-07T12:28:19.444Z,24.96
2018-04-07T12:29:19.435Z,25.08
2018-04-07T12:31:12.356Z,25.44
2018-04-07T12:32:12.292Z,25.63
2018-04-07T12:34:06.512Z,25.87
2018-04-07T12:35:05.405Z,26.21
2018-04-07T12:36:58.561Z,26.75
2018-04-07T12:37:58.348Z,26.93
2018-04-07T12:39:51.206Z,27.36
2018-04-07T12:40:51.038Z,27.70
2018-04-07T12:42:43.917Z,27.96
2018-04-07T12:43:43.898Z,28.08
2018-04-07T12:45:37.380Z,28.26
2018-04-07T12:46:37.359Z,28.26
2018-04-07T12:48:30.751Z,28.49
2018-04-07T12:49:30.896Z,28.51
2018-04-07T12:51:23.683Z,28.49
2018-04-07T12:52:23.689Z,28.63
2018-04-07T12:54:16.627Z,28.93
2018-04-07T12:55:16.504Z,29.10
2018-04-07T12:57:10.865Z,29.20
2018-04-07T12:58:10.852Z,29.14
2018-04-07T13:00:03.734Z,29.05
2018-04-07T13:01:03.712Z,29.07
2018-04-07T13:02:57.078Z,28.82
2018-04-07T13:03:57.062Z,28.88
2018-04-07T13:05:49.944Z,28.97
2018-04-07T13:06:49.922Z,29.04
2018-04-07T13:08:42.790Z,29.16
2018-04-07T13:09:42.779Z,29.23
2018-04-07T13:11:35.660Z,29.65
2018-04-07T13:12:35.638Z,29.53
2018-04-07T13:14:28.512Z,29.61
2018-04-07T13:15:28.499Z,29.84
2018-04-07T13:17:21.381Z,29.98
2018-04-07T13:18:21.357Z,30.09
2018-04-07T13:20:14.229Z,30.09
2018-04-07T13:21:14.344Z,30.12
2018-04-07T13:23:07.108Z,30.10
2018-04-07T13:24:07.079Z,30.32
2018-04-07T13:26:00.446Z,30.28
2018-04-07T13:27:00.433Z,30.19
2018-04-07T13:28:53.339Z,30.46
2018-04-07T13:29:53.296Z,30.35
2018-04-07T13:31:46.167Z,30.48
2018-04-07T13:32:46.159Z,30.48
2018-04-07T13:34:39.046Z,30.23
2018-04-07T13:35:39.023Z,30.25
2018-04-07T13:37:31.893Z,30.05
2018-04-07T13:38:31.884Z,30.13
2018-04-07T13:40:24.781Z,29.98
2018-04-07T13:41:24.746Z,30.03
2018-04-07T13:43:18.115Z,30.08
2018-04-07T13:44:18.103Z,30.16
2018-04-07T13:46:10.986Z,30.06
2018-04-07T13:47:10.963Z,30.24
2018-04-07T13:49:03.838Z,30.35
2018-04-07T13:50:03.828Z,30.40
2018-04-07T13:51:56.713Z,30.65
2018-04-07T13:52:56.691Z,30.85
2018-04-07T13:54:49.568Z,30.94
2018-04-07T13:55:49.558Z,31.03
2018-04-07T13:57:42.440Z,31.06
2018-04-07T13:58:42.502Z,31.07
2018-04-07T14:00:35.831Z,30.55
2018-04-07T14:01:35.822Z,30.57
2018-04-07T14:03:28.715Z,30.66
2018-04-07T14:04:28.746Z,30.66
2018-04-07T14:06:22.061Z,30.43
2018-04-07T14:07:22.052Z,30.47
2018-04-07T14:09:15.430Z,30.25
2018-04-07T14:10:15.407Z,30.09
2018-04-07T14:12:08.777Z,29.87
2018-04-07T14:13:08.793Z,29.87
2018-04-07T14:15:02.148Z,29.66
2018-04-07T14:16:02.129Z,29.51
2018-04-07T14:17:55.501Z,29.57
2018-04-07T14:18:55.488Z,29.56
2018-04-07T14:20:48.375Z,29.65
2018-04-07T14:21:48.405Z,29.86
2018-04-07T14:23:41.828Z,30.57
2018-04-07T14:24:41.731Z,30.80
2018-04-07T14:26:34.618Z,31.15
2018-04-07T14:27:34.598Z,31.14
2018-04-07T14:29:27.480Z,31.51
2018-04-07T14:30:27.471Z,31.46
2018-04-07T14:32:20.362Z,31.42
2018-04-07T14:33:20.346Z,31.40
2018-04-07T14:35:13.225Z,31.42
2018-04-07T14:36:13.250Z,31.51
2018-04-07T14:38:06.109Z,31.64
2018-04-07T14:39:06.092Z,31.43
2018-04-07T14:40:58.974Z,30.47
2018-04-07T14:41:58.966Z,30.40
2018-04-07T14:43:51.877Z,30.88
2018-04-07T14:44:51.851Z,30.80
2018-04-07T14:46:44.818Z,32.18
2018-04-07T14:47:44.724Z,32.68
2018-04-07T14:49:37.620Z,34.88
2018-04-07T14:50:37.669Z,35.49
2018-04-07T14:52:30.489Z,36.62
2018-04-07T14:53:30.476Z,37.25
2018-04-07T14:55:23.373Z,38.28
2018-04-07T14:56:23.358Z,38.31
2018-04-07T14:58:16.245Z,35.42
2018-04-07T14:59:16.241Z,34.38
2018-04-07T15:01:09.136Z,33.07
2018-04-07T15:02:09.122Z,32.30
2018-04-07T15:04:02.019Z,31.36
2018-04-07T15:05:02.010Z,31.17
2018-04-07T15:06:54.911Z,30.48
2018-04-07T15:07:54.896Z,30.31
2018-04-07T15:09:47.778Z,29.61
2018-04-07T15:10:47.775Z,30.16
2018-04-07T15:12:40.670Z,29.63
2018-04-07T15:13:40.661Z,29.56
2018-04-07T15:15:33.537Z,29.35
2018-04-07T15:16:33.536Z,29.31
2018-04-07T15:18:26.422Z,29.02
2018-04-07T15:19:26.408Z,28.76
2018-04-07T15:21:19.336Z,30.03
2018-04-07T15:22:19.281Z,30.32
2018-04-07T15:24:12.170Z,30.84
2018-04-07T15:25:12.153Z,30.63
2018-04-07T15:27:05.526Z,30.92
2018-04-07T15:28:05.519Z,30.83
2018-04-07T15:29:58.413Z,31.33
2018-04-07T15:30:58.397Z,31.37
2018-04-07T15:32:51.291Z,31.15
2018-04-07T15:33:51.277Z,30.92
2018-04-07T15:35:44.169Z,30.84
2018-04-07T15:36:44.151Z,30.91
2018-04-07T15:38:37.052Z,30.91
2018-04-07T15:39:37.044Z,30.78
2018-04-07T15:41:29.943Z,30.99
2018-04-07T15:42:29.918Z,30.91
2018-04-07T15:44:22.799Z,30.78
2018-04-07T15:45:22.793Z,31.02
2018-04-07T15:47:15.685Z,30.88
2018-04-07T15:48:15.669Z,31.17
2018-04-07T15:50:08.545Z,31.33
2018-04-07T15:51:08.550Z,31.40
2018-04-07T15:53:01.430Z,31.36
2018-04-07T15:54:01.410Z,31.33
2018-04-07T15:55:54.290Z,32.01
2018-04-07T15:56:54.280Z,32.26
2018-04-07T15:58:47.168Z,32.29
2018-04-07T15:59:47.149Z,32.16
2018-04-07T16:01:40.027Z,32.12
2018-04-07T16:02:40.018Z,32.03
2018-04-07T16:04:32.905Z,31.64
2018-04-07T16:05:32.884Z,31.47
2018-04-07T16:07:25.759Z,31.42
2018-04-07T16:08:25.753Z,31.27
2018-04-07T16:10:18.644Z,31.10
2018-04-07T16:11:18.664Z,30.87
2018-04-07T16:13:11.567Z,30.78
2018-04-07T16:14:11.491Z,30.59
2018-04-07T16:16:04.379Z,30.62
2018-04-07T16:17:04.358Z,30.46
2018-04-07T16:18:57.232Z,30.30
2018-04-07T16:19:57.224Z,30.27
2018-04-07T16:21:50.116Z,30.15
2018-04-07T16:22:50.094Z,30.16
2018-04-07T16:24:42.973Z,30.12
2018-04-07T16:25:42.966Z,29.95
2018-04-07T16:27:35.856Z,29.81
2018-04-07T16:28:35.861Z,29.71
2018-04-07T16:30:28.711Z,29.56
2018-04-07T16:31:28.705Z,29.56
2018-04-07T16:33:21.591Z,29.50
2018-04-07T16:34:21.600Z,29.61
2018-04-07T16:36:14.446Z,29.38
2018-04-07T16:37:14.437Z,29.16
2018-04-07T16:39:07.326Z,28.98
2018-04-07T16:40:07.300Z,28.82
2018-04-07T16:42:00.178Z,28.62
2018-04-07T16:43:00.169Z,28.59
2018-04-07T16:44:53.155Z,28.64
2018-04-07T16:45:53.033Z,28.59
2018-04-07T16:47:45.908Z,28.44
2018-04-07T16:48:45.898Z,28.45
2018-04-07T16:50:38.784Z,28.25
2018-04-07T16:51:38.762Z,28.08
2018-04-07T16:53:31.648Z,28.22
2018-04-07T16:54:31.639Z,28.20
2018-04-07T16:56:24.523Z,28.10
2018-04-07T16:57:24.501Z,27.95
2018-04-07T16:59:17.372Z,28.05
2018-04-07T17:00:17.363Z,28.11
2018-04-07T17:02:10.254Z,28.00
2018-04-07T17:03:10.229Z,28.05
2018-04-07T17:05:03.098Z,27.98
2018-04-07T17:06:03.090Z,27.82
2018-04-07T17:07:55.976Z,27.65
2018-04-07T17:08:55.954Z,27.80
2018-04-07T17:10:48.825Z,27.60
2018-04-07T17:11:48.814Z,27.26
2018-04-07T17:13:41.697Z,27.22
2018-04-07T17:14:41.676Z,27.36
2018-04-07T17:16:34.550Z,27.14
2018-04-07T17:17:34.536Z,27.30
2018-04-07T17:19:27.416Z,26.93
2018-04-07T17:20:27.396Z,26.89
2018-04-07T17:22:20.267Z,26.93
2018-04-07T17:23:20.256Z,26.92
2018-04-07T17:25:13.137Z,26.83
2018-04-07T17:26:13.114Z,26.80
2018-04-07T17:28:05.987Z,26.66
2018-04-07T17:29:05.977Z,26.80
2018-04-07T17:30:58.859Z,26.60
2018-04-07T17:31:58.838Z,26.58
2018-04-07T17:33:51.714Z,26.34
2018-04-07T17:34:51.699Z,26.36
2018-04-07T17:36:44.583Z,26.26
2018-04-07T17:37:44.561Z,26.16
2018-04-07T17:39:37.432Z,25.87
2018-04-07T17:40:37.420Z,25.87
2018-04-07T17:42:30.304Z,25.93
2018-04-07T17:43:30.278Z,25.81
2018-04-07T17:45:23.147Z,25.73
2018-04-07T17:46:23.132Z,25.70
2018-04-07T17:48:16.018Z,25.66
2018-04-07T17:49:15.995Z,25.54
2018-04-07T17:51:08.868Z,25.47
2018-04-07T17:52:08.854Z,25.33
2018-04-07T17:54:01.737Z,25.25
2018-04-07T17:55:01.712Z,25.17
2018-04-07T17:56:54.583Z,25.03
2018-04-07T17:57:54.572Z,25.06
2018-04-07T17:59:47.453Z,24.80
2018-04-07T18:00:47.429Z,24.88
2018-04-07T18:02:40.299Z,24.80
2018-04-07T18:03:40.286Z,24.74
2018-04-07T18:05:33.167Z,24.55
2018-04-07T18:06:33.142Z,24.58
2018-04-07T18:08:26.014Z,24.55
2018-04-07T18:09:26.003Z,24.48
2018-04-07T18:11:18.883Z,24.18
2018-04-07T18:12:18.858Z,24.40
2018-04-07T18:14:11.728Z,24.28
2018-04-07T18:15:11.717Z,24.26
2018-04-07T18:17:04.604Z,24.08
2018-04-07T18:18:04.580Z,24.17
2018-04-07T18:19:57.447Z,24.03
2018-04-07T18:20:57.494Z,24.10
2018-04-07T18:22:50.317Z,23.93
2018-04-07T18:23:50.296Z,23.95
2018-04-07T18:25:43.159Z,23.77
2018-04-07T18:26:43.149Z,23.73
2018-04-07T18:28:36.037Z,23.65
2018-04-07T18:29:36.018Z,23.65
2018-04-07T18:31:28.884Z,23.51
2018-04-07T18:32:28.869Z,23.63
2018-04-07T18:34:21.753Z,23.44